CheckWX is a tool to help pilots better visualize weather data.  It is not intended as a substitute for an official pre-flight weather briefing.

18:08:44 UTC

KOKC TAF
Will Rogers World Airport
Oklahoma City, Oklahoma, USA
KOKC 052325Z 0600/0624 16011G17KT P6SM SCT035 SCT250 TEMPO 0600/0603 BKN035 FM060300 17011KT P6SM BKN025 FM060900 18011KT 5SM BR OVC012 FM061500 19016G23KT P6SM OVC015 FM061900 20017G24KT P6SM BKN030

Apr-6@
00:00 UTC

Apr-6 @ 00:00 UTC

Apr-6@
03:00 UTC

Apr-6 @ 03:00 UTC

TAF KOKC 052325Z 0600/0624 16011G17KT P6SM SCT035 SCT250

Expired

Wind
  • 160° at 11 KTS
  • {Gusting to 17 KTS
Cloud Levels
  • Scattered at 3,500' AGL
  • Scattered at 25,000' AGL

Apr-6@
00:00 UTC

Apr-6 @ 00:00 UTC

Apr-6@
03:00 UTC

Apr-6 @ 03:00 UTC

TEMPO 0600/0603 BKN035

Expired

Cloud Levels
  • Broken at 3,500' AGL

Apr-6@
03:00 UTC

Apr-6 @ 03:00 UTC

Apr-6@
09:00 UTC

Apr-6 @ 09:00 UTC

FM060300 17011KT P6SM BKN025

Expired

Wind
  • 170° at 11 KTS
Cloud Levels
  • Broken at 2,500' AGL

Apr-6@
09:00 UTC

Apr-6 @ 09:00 UTC

Apr-6@
15:00 UTC

Apr-6 @ 15:00 UTC

FM060900 18011KT 5SM BR OVC012

Expired

Wind
  • 180° at 11 KTS
Conditions
Mist
Cloud Levels
  • Overcast at 1,200' AGL

Apr-6@
15:00 UTC

Apr-6 @ 15:00 UTC

Apr-6@
19:00 UTC

Apr-6 @ 19:00 UTC

FM061500 19016G23KT P6SM OVC015

From

From Standard forecast or significant change

Wind
  • 190° at 16 KTS
  • {Gusting to 23 KTS
Cloud Levels
  • Overcast at 1,500' AGL

Apr-6@
19:00 UTC

Apr-6 @ 19:00 UTC

Apr-7@
00:00 UTC

Apr-7 @ 00:00 UTC

FM061900 20017G24KT P6SM BKN030

From

From Standard forecast or significant change

Wind
  • 200° at 17 KTS
  • {Gusting to 24 KTS
Cloud Levels
  • Broken at 3,000' AGL